sensor_id;sensor_type;location;lat;lon;timestamp;P1;durP1;ratioP1;P2;durP2;ratioP2
50319;SDS011;36226;53.464;9.852;2022-09-03T00:00:14;1.88;;;0.50;;
50319;SDS011;36226;53.464;9.852;2022-09-03T00:08:04;1.15;;;0.63;;
50319;SDS011;36226;53.464;9.852;2022-09-03T00:10:35;0.65;;;0.52;;
50319;SDS011;36226;53.464;9.852;2022-09-03T00:13:08;1.80;;;0.80;;
50319;SDS011;36226;53.464;9.852;2022-09-03T00:15:34;1.80;;;0.70;;
50319;SDS011;36226;53.464;9.852;2022-09-03T00:18:12;1.45;;;0.85;;
50319;SDS011;36226;53.464;9.852;2022-09-03T00:20:41;0.88;;;0.57;;
50319;SDS011;36226;53.464;9.852;2022-09-03T00:23:09;0.70;;;0.50;;
50319;SDS011;36226;53.464;9.852;2022-09-03T00:28:06;1.30;;;0.70;;
50319;SDS011;36226;53.464;9.852;2022-09-03T00:30:37;0.45;;;0.40;;
50319;SDS011;36226;53.464;9.852;2022-09-03T00:33:08;0.68;;;0.47;;
50319;SDS011;36226;53.464;9.852;2022-09-03T00:35:45;1.25;;;0.60;;
50319;SDS011;36226;53.464;9.852;2022-09-03T00:38:13;2.40;;;0.70;;
50319;SDS011;36226;53.464;9.852;2022-09-03T00:49:09;0.52;;;0.50;;
50319;SDS011;36226;53.464;9.852;2022-09-03T00:54:59;1.13;;;0.70;;
50319;SDS011;36226;53.464;9.852;2022-09-03T01:00:15;2.33;;;0.82;;
50319;SDS011;36226;53.464;9.852;2022-09-03T01:05:40;3.97;;;0.60;;
50319;SDS011;36226;53.464;9.852;2022-09-03T01:11:22;2.20;;;0.60;;
50319;SDS011;36226;53.464;9.852;2022-09-03T01:17:00;3.05;;;0.57;;
50319;SDS011;36226;53.464;9.852;2022-09-03T01:27:44;1.95;;;0.73;;
50319;SDS011;36226;53.464;9.852;2022-09-03T01:30:13;1.42;;;0.60;;
50319;SDS011;36226;53.464;9.852;2022-09-03T01:35:51;1.25;;;0.50;;
50319;SDS011;36226;53.464;9.852;2022-09-03T01:43:16;1.45;;;0.50;;
50319;SDS011;36226;53.464;9.852;2022-09-03T01:55:57;3.47;;;0.70;;
50319;SDS011;36226;53.464;9.852;2022-09-03T01:58:32;0.65;;;0.60;;
50319;SDS011;36226;53.464;9.852;2022-09-03T02:01:06;1.02;;;0.70;;
50319;SDS011;36226;53.464;9.852;2022-09-03T02:03:37;1.00;;;0.65;;
50319;SDS011;36226;53.464;9.852;2022-09-03T02:06:04;0.98;;;0.60;;
50319;SDS011;36226;53.464;9.852;2022-09-03T02:08:31;2.70;;;0.80;;
50319;SDS011;36226;53.464;9.852;2022-09-03T02:10:57;1.75;;;0.80;;
50319;SDS011;36226;53.464;9.852;2022-09-03T02:13:37;1.00;;;0.50;;
50319;SDS011;36226;53.464;9.852;2022-09-03T02:16:22;0.60;;;0.60;;
50319;SDS011;36226;53.464;9.852;2022-09-03T02:18:58;2.15;;;0.60;;
50319;SDS011;36226;53.464;9.852;2022-09-03T02:21:27;1.73;;;0.93;;
50319;SDS011;36226;53.464;9.852;2022-09-03T02:23:58;1.20;;;0.60;;
50319;SDS011;36226;53.464;9.852;2022-09-03T02:26:24;0.73;;;0.60;;
50319;SDS011;36226;53.464;9.852;2022-09-03T02:28:50;1.35;;;0.77;;
50319;SDS011;36226;53.464;9.852;2022-09-03T02:31:16;1.10;;;0.60;;
50319;SDS011;36226;53.464;9.852;2022-09-03T02:33:42;1.15;;;0.80;;
50319;SDS011;36226;53.464;9.852;2022-09-03T02:36:09;1.30;;;0.70;;
50319;SDS011;36226;53.464;9.852;2022-09-03T02:38:36;2.00;;;0.80;;
50319;SDS011;36226;53.464;9.852;2022-09-03T02:41:01;1.13;;;0.80;;
50319;SDS011;36226;53.464;9.852;2022-09-03T02:43:31;1.45;;;0.90;;
50319;SDS011;36226;53.464;9.852;2022-09-03T02:45:59;1.30;;;0.52;;
50319;SDS011;36226;53.464;9.852;2022-09-03T02:48:28;2.25;;;0.70;;
50319;SDS011;36226;53.464;9.852;2022-09-03T02:50:54;2.33;;;0.90;;
50319;SDS011;36226;53.464;9.852;2022-09-03T02:53:19;2.22;;;0.70;;
50319;SDS011;36226;53.464;9.852;2022-09-03T02:55:45;1.10;;;0.60;;
50319;SDS011;36226;53.464;9.852;2022-09-03T02:58:10;3.20;;;0.80;;
50319;SDS011;36226;53.464;9.852;2022-09-03T03:00:36;1.13;;;0.60;;
50319;SDS011;36226;53.464;9.852;2022-09-03T03:03:04;0.85;;;0.60;;
50319;SDS011;36226;53.464;9.852;2022-09-03T03:08:21;1.33;;;0.70;;
50319;SDS011;36226;53.464;9.852;2022-09-03T03:10:54;0.90;;;0.70;;
50319;SDS011;36226;53.464;9.852;2022-09-03T03:13:23;1.13;;;0.82;;
50319;SDS011;36226;53.464;9.852;2022-09-03T03:15:56;1.02;;;0.70;;
50319;SDS011;36226;53.464;9.852;2022-09-03T03:18:24;2.80;;;0.70;;
50319;SDS011;36226;53.464;9.852;2022-09-03T03:20:50;1.80;;;0.70;;
50319;SDS011;36226;53.464;9.852;2022-09-03T03:23:15;1.23;;;0.60;;
50319;SDS011;36226;53.464;9.852;2022-09-03T03:25:41;1.40;;;0.70;;
50319;SDS011;36226;53.464;9.852;2022-09-03T03:28:15;1.25;;;0.60;;
50319;SDS011;36226;53.464;9.852;2022-09-03T03:30:42;1.13;;;0.80;;
50319;SDS011;36226;53.464;9.852;2022-09-03T03:33:11;1.10;;;0.65;;
50319;SDS011;36226;53.464;9.852;2022-09-03T03:35:36;1.65;;;0.70;;
50319;SDS011;36226;53.464;9.852;2022-09-03T03:38:02;2.03;;;0.90;;
50319;SDS011;36226;53.464;9.852;2022-09-03T03:40:29;1.88;;;0.90;;
50319;SDS011;36226;53.464;9.852;2022-09-03T03:42:56;1.52;;;0.80;;
50319;SDS011;36226;53.464;9.852;2022-09-03T03:45:22;1.00;;;0.80;;
50319;SDS011;36226;53.464;9.852;2022-09-03T03:47:47;1.55;;;0.80;;
50319;SDS011;36226;53.464;9.852;2022-09-03T03:50:12;1.42;;;0.80;;
50319;SDS011;36226;53.464;9.852;2022-09-03T03:52:38;1.85;;;0.75;;
50319;SDS011;36226;53.464;9.852;2022-09-03T03:55:03;2.63;;;0.80;;
50319;SDS011;36226;53.464;9.852;2022-09-03T03:57:29;2.85;;;0.90;;
50319;SDS011;36226;53.464;9.852;2022-09-03T03:59:56;1.00;;;0.73;;
50319;SDS011;36226;53.464;9.852;2022-09-03T04:02:21;2.15;;;0.77;;
50319;SDS011;36226;53.464;9.852;2022-09-03T04:04:46;2.38;;;0.70;;
50319;SDS011;36226;53.464;9.852;2022-09-03T04:07:12;1.88;;;0.70;;
50319;SDS011;36226;53.464;9.852;2022-09-03T04:09:37;2.05;;;0.80;;
50319;SDS011;36226;53.464;9.852;2022-09-03T04:12:03;1.83;;;0.68;;
50319;SDS011;36226;53.464;9.852;2022-09-03T04:14:32;1.58;;;0.70;;
50319;SDS011;36226;53.464;9.852;2022-09-03T04:16:58;0.90;;;0.70;;
50319;SDS011;36226;53.464;9.852;2022-09-03T04:19:23;2.17;;;0.80;;
50319;SDS011;36226;53.464;9.852;2022-09-03T04:21:49;1.83;;;0.90;;
50319;SDS011;36226;53.464;9.852;2022-09-03T04:24:14;1.25;;;0.70;;
50319;SDS011;36226;53.464;9.852;2022-09-03T04:26:39;1.30;;;0.90;;
50319;SDS011;36226;53.464;9.852;2022-09-03T04:29:08;2.75;;;0.88;;
50319;SDS011;36226;53.464;9.852;2022-09-03T04:31:35;1.10;;;0.80;;
50319;SDS011;36226;53.464;9.852;2022-09-03T04:34:01;2.28;;;0.90;;
50319;SDS011;36226;53.464;9.852;2022-09-03T04:36:27;2.10;;;0.90;;
50319;SDS011;36226;53.464;9.852;2022-09-03T04:38:54;1.13;;;0.63;;
50319;SDS011;36226;53.464;9.852;2022-09-03T04:41:21;1.30;;;0.90;;
50319;SDS011;36226;53.464;9.852;2022-09-03T04:43:51;1.05;;;0.80;;
50319;SDS011;36226;53.464;9.852;2022-09-03T04:46:17;1.40;;;0.70;;
50319;SDS011;36226;53.464;9.852;2022-09-03T04:48:46;2.72;;;0.95;;
50319;SDS011;36226;53.464;9.852;2022-09-03T04:51:13;0.80;;;0.70;;
50319;SDS011;36226;53.464;9.852;2022-09-03T04:53:40;2.08;;;0.68;;
50319;SDS011;36226;53.464;9.852;2022-09-03T04:56:14;3.38;;;0.95;;
50319;SDS011;36226;53.464;9.852;2022-09-03T04:58:43;1.45;;;0.80;;
50319;SDS011;36226;53.464;9.852;2022-09-03T05:01:10;0.90;;;0.70;;
50319;SDS011;36226;53.464;9.852;2022-09-03T05:03:36;1.45;;;0.80;;
50319;SDS011;36226;53.464;9.852;2022-09-03T05:06:02;1.17;;;0.90;;
50319;SDS011;36226;53.464;9.852;2022-09-03T05:08:29;1.65;;;1.10;;
50319;SDS011;36226;53.464;9.852;2022-09-03T05:10:58;2.08;;;1.08;;
50319;SDS011;36226;53.464;9.852;2022-09-03T05:13:24;1.30;;;0.77;;
50319;SDS011;36226;53.464;9.852;2022-09-03T05:15:50;1.42;;;0.80;;
50319;SDS011;36226;53.464;9.852;2022-09-03T05:18:15;0.98;;;0.70;;
50319;SDS011;36226;53.464;9.852;2022-09-03T05:20:40;2.45;;;1.00;;
50319;SDS011;36226;53.464;9.852;2022-09-03T05:23:06;1.27;;;0.70;;
50319;SDS011;36226;53.464;9.852;2022-09-03T05:25:32;1.25;;;0.73;;
50319;SDS011;36226;53.464;9.852;2022-09-03T05:27:57;2.30;;;0.90;;
50319;SDS011;36226;53.464;9.852;2022-09-03T05:30:23;1.67;;;0.70;;
50319;SDS011;36226;53.464;9.852;2022-09-03T05:32:49;1.45;;;0.80;;
50319;SDS011;36226;53.464;9.852;2022-09-03T05:35:15;2.25;;;0.90;;
50319;SDS011;36226;53.464;9.852;2022-09-03T05:37:41;2.35;;;0.82;;
50319;SDS011;36226;53.464;9.852;2022-09-03T05:40:06;1.10;;;0.80;;
50319;SDS011;36226;53.464;9.852;2022-09-03T05:42:35;0.93;;;0.82;;
50319;SDS011;36226;53.464;9.852;2022-09-03T05:45:01;2.28;;;1.10;;
50319;SDS011;36226;53.464;9.852;2022-09-03T05:47:29;2.17;;;0.80;;
50319;SDS011;36226;53.464;9.852;2022-09-03T05:49:55;1.63;;;1.00;;
50319;SDS011;36226;53.464;9.852;2022-09-03T05:52:21;2.58;;;0.90;;
50319;SDS011;36226;53.464;9.852;2022-09-03T05:54:47;1.40;;;0.80;;
50319;SDS011;36226;53.464;9.852;2022-09-03T05:57:15;1.05;;;0.63;;
50319;SDS011;36226;53.464;9.852;2022-09-03T05:59:40;1.40;;;0.90;;
50319;SDS011;36226;53.464;9.852;2022-09-03T06:02:05;4.03;;;1.00;;
50319;SDS011;36226;53.464;9.852;2022-09-03T06:04:31;0.70;;;0.70;;
50319;SDS011;36226;53.464;9.852;2022-09-03T06:06:57;0.90;;;0.70;;
50319;SDS011;36226;53.464;9.852;2022-09-03T06:09:22;1.58;;;0.90;;
50319;SDS011;36226;53.464;9.852;2022-09-03T06:11:48;1.45;;;0.70;;
50319;SDS011;36226;53.464;9.852;2022-09-03T06:14:13;1.55;;;1.00;;
50319;SDS011;36226;53.464;9.852;2022-09-03T06:16:40;1.52;;;0.90;;
50319;SDS011;36226;53.464;9.852;2022-09-03T06:19:07;0.70;;;0.57;;
50319;SDS011;36226;53.464;9.852;2022-09-03T06:21:38;2.95;;;0.80;;
50319;SDS011;36226;53.464;9.852;2022-09-03T06:24:07;1.88;;;0.90;;
50319;SDS011;36226;53.464;9.852;2022-09-03T06:26:33;2.58;;;0.80;;
50319;SDS011;36226;53.464;9.852;2022-09-03T06:28:58;2.25;;;0.90;;
50319;SDS011;36226;53.464;9.852;2022-09-03T06:31:24;1.85;;;0.80;;
50319;SDS011;36226;53.464;9.852;2022-09-03T06:33:50;1.13;;;0.77;;
50319;SDS011;36226;53.464;9.852;2022-09-03T06:36:17;1.90;;;1.05;;
50319;SDS011;36226;53.464;9.852;2022-09-03T06:38:43;3.20;;;0.90;;
50319;SDS011;36226;53.464;9.852;2022-09-03T06:41:16;1.33;;;0.93;;
50319;SDS011;36226;53.464;9.852;2022-09-03T06:43:46;2.45;;;0.80;;
50319;SDS011;36226;53.464;9.852;2022-09-03T06:46:16;1.63;;;0.90;;
50319;SDS011;36226;53.464;9.852;2022-09-03T06:48:43;1.77;;;0.90;;
50319;SDS011;36226;53.464;9.852;2022-09-03T06:51:12;1.17;;;0.75;;
50319;SDS011;36226;53.464;9.852;2022-09-03T06:53:40;2.13;;;0.80;;
50319;SDS011;36226;53.464;9.852;2022-09-03T06:56:08;2.90;;;0.90;;
50319;SDS011;36226;53.464;9.852;2022-09-03T06:58:35;2.08;;;0.90;;
50319;SDS011;36226;53.464;9.852;2022-09-03T07:01:06;2.58;;;0.68;;
50319;SDS011;36226;53.464;9.852;2022-09-03T07:03:36;4.50;;;0.80;;
50319;SDS011;36226;53.464;9.852;2022-09-03T07:06:03;1.95;;;0.77;;
50319;SDS011;36226;53.464;9.852;2022-09-03T07:08:30;1.35;;;0.73;;
50319;SDS011;36226;53.464;9.852;2022-09-03T07:10:57;3.10;;;0.80;;
50319;SDS011;36226;53.464;9.852;2022-09-03T07:13:24;2.10;;;1.00;;
50319;SDS011;36226;53.464;9.852;2022-09-03T07:15:57;3.38;;;0.77;;
50319;SDS011;36226;53.464;9.852;2022-09-03T07:18:30;1.58;;;0.80;;
50319;SDS011;36226;53.464;9.852;2022-09-03T07:20:57;2.03;;;0.85;;
50319;SDS011;36226;53.464;9.852;2022-09-03T07:23:30;2.22;;;0.77;;
50319;SDS011;36226;53.464;9.852;2022-09-03T07:25:56;1.60;;;0.80;;
50319;SDS011;36226;53.464;9.852;2022-09-03T07:28:24;2.17;;;0.90;;
50319;SDS011;36226;53.464;9.852;2022-09-03T07:30:51;3.50;;;0.80;;
50319;SDS011;36226;53.464;9.852;2022-09-03T07:33:18;2.72;;;0.80;;
50319;SDS011;36226;53.464;9.852;2022-09-03T07:35:44;1.30;;;0.65;;
50319;SDS011;36226;53.464;9.852;2022-09-03T07:38:10;1.55;;;0.90;;
50319;SDS011;36226;53.464;9.852;2022-09-03T07:40:35;2.63;;;0.95;;
50319;SDS011;36226;53.464;9.852;2022-09-03T07:43:03;2.47;;;0.90;;
50319;SDS011;36226;53.464;9.852;2022-09-03T07:45:29;2.05;;;0.73;;
50319;SDS011;36226;53.464;9.852;2022-09-03T07:47:55;1.75;;;0.82;;
50319;SDS011;36226;53.464;9.852;2022-09-03T07:50:20;2.08;;;0.90;;
50319;SDS011;36226;53.464;9.852;2022-09-03T07:52:46;1.27;;;0.75;;
50319;SDS011;36226;53.464;9.852;2022-09-03T07:55:12;1.60;;;0.70;;
50319;SDS011;36226;53.464;9.852;2022-09-03T07:57:38;1.52;;;0.70;;
50319;SDS011;36226;53.464;9.852;2022-09-03T08:00:05;3.35;;;0.80;;
50319;SDS011;36226;53.464;9.852;2022-09-03T08:02:34;3.67;;;1.08;;
50319;SDS011;36226;53.464;9.852;2022-09-03T08:04:59;1.48;;;0.70;;
50319;SDS011;36226;53.464;9.852;2022-09-03T08:07:25;1.55;;;0.80;;
50319;SDS011;36226;53.464;9.852;2022-09-03T08:09:50;3.00;;;0.80;;
50319;SDS011;36226;53.464;9.852;2022-09-03T08:12:19;1.33;;;0.82;;
50319;SDS011;36226;53.464;9.852;2022-09-03T08:14:44;1.60;;;0.73;;
50319;SDS011;36226;53.464;9.852;2022-09-03T08:17:09;2.75;;;0.82;;
50319;SDS011;36226;53.464;9.852;2022-09-03T08:19:36;1.60;;;0.90;;
50319;SDS011;36226;53.464;9.852;2022-09-03T08:22:02;0.93;;;0.60;;
50319;SDS011;36226;53.464;9.852;2022-09-03T08:24:27;3.60;;;0.85;;
50319;SDS011;36226;53.464;9.852;2022-09-03T08:26:53;2.75;;;0.80;;
50319;SDS011;36226;53.464;9.852;2022-09-03T08:29:21;4.00;;;0.80;;
50319;SDS011;36226;53.464;9.852;2022-09-03T08:31:46;1.70;;;0.90;;
50319;SDS011;36226;53.464;9.852;2022-09-03T08:34:12;1.35;;;0.73;;
50319;SDS011;36226;53.464;9.852;2022-09-03T08:36:38;1.30;;;0.70;;
50319;SDS011;36226;53.464;9.852;2022-09-03T08:39:06;2.55;;;1.02;;
50319;SDS011;36226;53.464;9.852;2022-09-03T08:41:43;3.47;;;0.95;;
50319;SDS011;36226;53.464;9.852;2022-09-03T08:44:18;1.90;;;0.80;;
50319;SDS011;36226;53.464;9.852;2022-09-03T08:47:01;4.03;;;0.75;;
50319;SDS011;36226;53.464;9.852;2022-09-03T08:52:21;1.77;;;0.80;;
50319;SDS011;36226;53.464;9.852;2022-09-03T08:54:50;2.95;;;0.60;;
50319;SDS011;36226;53.464;9.852;2022-09-03T08:57:18;2.40;;;0.60;;
50319;SDS011;36226;53.464;9.852;2022-09-03T08:59:44;1.05;;;0.57;;
50319;SDS011;36226;53.464;9.852;2022-09-03T09:02:16;3.60;;;0.70;;
50319;SDS011;36226;53.464;9.852;2022-09-03T09:07:43;3.80;;;0.70;;
50319;SDS011;36226;53.464;9.852;2022-09-03T09:10:24;3.40;;;0.70;;
50319;SDS011;36226;53.464;9.852;2022-09-03T09:21:36;1.60;;;0.73;;
50319;SDS011;36226;53.464;9.852;2022-09-03T09:24:23;1.67;;;0.88;;
50319;SDS011;36226;53.464;9.852;2022-09-03T09:26:57;0.80;;;0.60;;
50319;SDS011;36226;53.464;9.852;2022-09-03T09:29:24;1.48;;;0.70;;
50319;SDS011;36226;53.464;9.852;2022-09-03T09:31:52;1.65;;;0.80;;
50319;SDS011;36226;53.464;9.852;2022-09-03T09:34:18;5.28;;;0.85;;
50319;SDS011;36226;53.464;9.852;2022-09-03T09:36:53;1.05;;;0.70;;
50319;SDS011;36226;53.464;9.852;2022-09-03T09:39:19;4.97;;;1.00;;
50319;SDS011;36226;53.464;9.852;2022-09-03T09:42:00;4.10;;;0.70;;
50319;SDS011;36226;53.464;9.852;2022-09-03T09:44:32;1.83;;;0.88;;
50319;SDS011;36226;53.464;9.852;2022-09-03T09:47:09;1.95;;;0.73;;
50319;SDS011;36226;53.464;9.852;2022-09-03T09:52:13;4.10;;;0.70;;
50319;SDS011;36226;53.464;9.852;2022-09-03T09:54:40;1.40;;;0.65;;
50319;SDS011;36226;53.464;9.852;2022-09-03T09:57:07;1.63;;;0.68;;
50319;SDS011;36226;53.464;9.852;2022-09-03T09:59:42;2.88;;;0.70;;
50319;SDS011;36226;53.464;9.852;2022-09-03T10:02:12;0.73;;;0.60;;
50319;SDS011;36226;53.464;9.852;2022-09-03T10:04:39;1.38;;;0.70;;
50319;SDS011;36226;53.464;9.852;2022-09-03T10:07:20;1.27;;;0.70;;
50319;SDS011;36226;53.464;9.852;2022-09-03T10:10:05;3.60;;;0.73;;
50319;SDS011;36226;53.464;9.852;2022-09-03T10:12:39;1.52;;;0.63;;
50319;SDS011;36226;53.464;9.852;2022-09-03T10:15:24;1.23;;;0.60;;
50319;SDS011;36226;53.464;9.852;2022-09-03T10:17:59;1.55;;;0.70;;
50319;SDS011;36226;53.464;9.852;2022-09-03T10:23:15;1.52;;;0.82;;
50319;SDS011;36226;53.464;9.852;2022-09-03T10:28:27;4.68;;;0.75;;
50319;SDS011;36226;53.464;9.852;2022-09-03T10:34:04;2.25;;;0.70;;
50319;SDS011;36226;53.464;9.852;2022-09-03T10:39:21;8.23;;;0.90;;
50319;SDS011;36226;53.464;9.852;2022-09-03T10:55:21;3.50;;;0.70;;
50319;SDS011;36226;53.464;9.852;2022-09-03T10:57:58;1.63;;;0.60;;
50319;SDS011;36226;53.464;9.852;2022-09-03T11:00:44;1.20;;;0.80;;
50319;SDS011;36226;53.464;9.852;2022-09-03T11:03:29;1.55;;;0.60;;
50319;SDS011;36226;53.464;9.852;2022-09-03T11:06:23;2.15;;;0.77;;
50319;SDS011;36226;53.464;9.852;2022-09-03T11:08:54;4.88;;;0.70;;
50319;SDS011;36226;53.464;9.852;2022-09-03T11:11:26;1.48;;;0.65;;
50319;SDS011;36226;53.464;9.852;2022-09-03T11:14:07;3.25;;;0.60;;
50319;SDS011;36226;53.464;9.852;2022-09-03T11:19:33;4.97;;;0.52;;
50319;SDS011;36226;53.464;9.852;2022-09-03T11:22:03;0.60;;;0.60;;
50319;SDS011;36226;53.464;9.852;2022-09-03T11:24:30;2.15;;;0.60;;
50319;SDS011;36226;53.464;9.852;2022-09-03T11:27:01;2.58;;;0.57;;
50319;SDS011;36226;53.464;9.852;2022-09-03T11:32:57;2.38;;;0.70;;
50319;SDS011;36226;53.464;9.852;2022-09-03T11:35:26;1.40;;;0.60;;
50319;SDS011;36226;53.464;9.852;2022-09-03T11:37:56;0.90;;;0.60;;
50319;SDS011;36226;53.464;9.852;2022-09-03T11:40:37;1.95;;;0.60;;
50319;SDS011;36226;53.464;9.852;2022-09-03T11:43:10;3.25;;;0.80;;
50319;SDS011;36226;53.464;9.852;2022-09-03T11:45:37;3.33;;;0.95;;
50319;SDS011;36226;53.464;9.852;2022-09-03T11:48:16;5.07;;;0.68;;
50319;SDS011;36226;53.464;9.852;2022-09-03T11:50:56;2.65;;;0.70;;
50319;SDS011;36226;53.464;9.852;2022-09-03T11:53:23;4.25;;;0.73;;
50319;SDS011;36226;53.464;9.852;2022-09-03T11:55:59;3.28;;;0.80;;
50319;SDS011;36226;53.464;9.852;2022-09-03T11:58:36;1.35;;;0.65;;
50319;SDS011;36226;53.464;9.852;2022-09-03T12:01:04;2.40;;;0.80;;
50319;SDS011;36226;53.464;9.852;2022-09-03T12:06:35;1.67;;;0.85;;
50319;SDS011;36226;53.464;9.852;2022-09-03T12:19:53;4.20;;;0.70;;
50319;SDS011;36226;53.464;9.852;2022-09-03T12:22:22;3.00;;;0.80;;
50319;SDS011;36226;53.464;9.852;2022-09-03T12:24:49;4.18;;;0.73;;
50319;SDS011;36226;53.464;9.852;2022-09-03T12:27:24;1.95;;;0.70;;
50319;SDS011;36226;53.464;9.852;2022-09-03T12:32:24;1.33;;;0.70;;
50319;SDS011;36226;53.464;9.852;2022-09-03T12:35:17;2.75;;;0.70;;
50319;SDS011;36226;53.464;9.852;2022-09-03T12:37:44;1.00;;;0.70;;
50319;SDS011;36226;53.464;9.852;2022-09-03T12:42:45;1.23;;;0.60;;
50319;SDS011;36226;53.464;9.852;2022-09-03T12:45:11;3.60;;;0.90;;
50319;SDS011;36226;53.464;9.852;2022-09-03T12:47:40;0.95;;;0.80;;
50319;SDS011;36226;53.464;9.852;2022-09-03T12:50:26;2.13;;;0.90;;
50319;SDS011;36226;53.464;9.852;2022-09-03T12:52:52;3.83;;;0.70;;
50319;SDS011;36226;53.464;9.852;2022-09-03T12:58:05;3.33;;;0.80;;
50319;SDS011;36226;53.464;9.852;2022-09-03T13:00:49;0.90;;;0.70;;
50319;SDS011;36226;53.464;9.852;2022-09-03T13:03:19;3.60;;;0.90;;
50319;SDS011;36226;53.464;9.852;2022-09-03T13:08:22;2.35;;;0.80;;
50319;SDS011;36226;53.464;9.852;2022-09-03T13:10:50;1.20;;;0.70;;
50319;SDS011;36226;53.464;9.852;2022-09-03T13:15:55;4.78;;;0.73;;
50319;SDS011;36226;53.464;9.852;2022-09-03T13:18:29;1.75;;;0.60;;
50319;SDS011;36226;53.464;9.852;2022-09-03T13:30:07;2.55;;;0.80;;
50319;SDS011;36226;53.464;9.852;2022-09-03T13:35:53;1.35;;;0.75;;
50319;SDS011;36226;53.464;9.852;2022-09-03T13:43:53;1.88;;;1.10;;
50319;SDS011;36226;53.464;9.852;2022-09-03T13:46:25;5.03;;;0.90;;
50319;SDS011;36226;53.464;9.852;2022-09-03T13:54:58;2.47;;;0.70;;
50319;SDS011;36226;53.464;9.852;2022-09-03T14:00:05;1.98;;;0.70;;
50319;SDS011;36226;53.464;9.852;2022-09-03T14:13:11;0.73;;;0.65;;
50319;SDS011;36226;53.464;9.852;2022-09-03T14:15:41;1.95;;;1.00;;
50319;SDS011;36226;53.464;9.852;2022-09-03T14:20:43;2.83;;;0.77;;
50319;SDS011;36226;53.464;9.852;2022-09-03T14:25:55;1.08;;;0.80;;
50319;SDS011;36226;53.464;9.852;2022-09-03T14:28:27;3.15;;;0.90;;
50319;SDS011;36226;53.464;9.852;2022-09-03T14:52:35;1.15;;;0.70;;
50319;SDS011;36226;53.464;9.852;2022-09-03T15:01:01;2.78;;;1.15;;
50319;SDS011;36226;53.464;9.852;2022-09-03T15:17:43;1.95;;;0.90;;
50319;SDS011;36226;53.464;9.852;2022-09-03T15:25:21;2.35;;;0.70;;
50319;SDS011;36226;53.464;9.852;2022-09-03T15:28:05;2.45;;;0.82;;
50319;SDS011;36226;53.464;9.852;2022-09-03T15:33:33;2.78;;;0.60;;
50319;SDS011;36226;53.464;9.852;2022-09-03T15:39:04;2.80;;;0.68;;
50319;SDS011;36226;53.464;9.852;2022-09-03T15:41:34;1.23;;;0.80;;
50319;SDS011;36226;53.464;9.852;2022-09-03T15:44:07;1.42;;;0.80;;
50319;SDS011;36226;53.464;9.852;2022-09-03T15:46:44;2.22;;;0.60;;
50319;SDS011;36226;53.464;9.852;2022-09-03T15:49:27;6.18;;;1.02;;
50319;SDS011;36226;53.464;9.852;2022-09-03T15:52:07;4.93;;;0.85;;
50319;SDS011;36226;53.464;9.852;2022-09-03T15:54:37;2.67;;;0.73;;
50319;SDS011;36226;53.464;9.852;2022-09-03T15:57:16;2.40;;;0.90;;
50319;SDS011;36226;53.464;9.852;2022-09-03T15:59:49;1.48;;;0.60;;
50319;SDS011;36226;53.464;9.852;2022-09-03T16:02:19;1.92;;;0.75;;
50319;SDS011;36226;53.464;9.852;2022-09-03T16:19:17;1.33;;;0.80;;
50319;SDS011;36226;53.464;9.852;2022-09-03T16:21:50;3.22;;;0.80;;
50319;SDS011;36226;53.464;9.852;2022-09-03T16:26:55;1.30;;;0.88;;
50319;SDS011;36226;53.464;9.852;2022-09-03T16:29:26;1.25;;;0.80;;
50319;SDS011;36226;53.464;9.852;2022-09-03T16:45:29;2.33;;;0.70;;
50319;SDS011;36226;53.464;9.852;2022-09-03T16:53:41;3.67;;;0.75;;
50319;SDS011;36226;53.464;9.852;2022-09-03T16:56:39;0.93;;;0.57;;
50319;SDS011;36226;53.464;9.852;2022-09-03T17:13:48;2.33;;;0.98;;
50319;SDS011;36226;53.464;9.852;2022-09-03T17:21:36;1.38;;;0.77;;
50319;SDS011;36226;53.464;9.852;2022-09-03T17:24:12;1.48;;;0.80;;
50319;SDS011;36226;53.464;9.852;2022-09-03T17:32:17;3.47;;;1.00;;
50319;SDS011;36226;53.464;9.852;2022-09-03T17:45:36;15.13;;;7.75;;
50319;SDS011;36226;53.464;9.852;2022-09-03T17:48:20;3.45;;;2.60;;
50319;SDS011;36226;53.464;9.852;2022-09-03T17:50:56;4.93;;;3.17;;
50319;SDS011;36226;53.464;9.852;2022-09-03T17:56:09;16.92;;;4.32;;
50319;SDS011;36226;53.464;9.852;2022-09-03T17:59:04;3.92;;;1.80;;
50319;SDS011;36226;53.464;9.852;2022-09-03T18:01:36;2.88;;;1.48;;
50319;SDS011;36226;53.464;9.852;2022-09-03T18:06:54;3.53;;;1.13;;
50319;SDS011;36226;53.464;9.852;2022-09-03T18:12:29;5.60;;;3.67;;
50319;SDS011;36226;53.464;9.852;2022-09-03T18:15:07;4.57;;;2.47;;
50319;SDS011;36226;53.464;9.852;2022-09-03T18:20:05;5.03;;;1.30;;
50319;SDS011;36226;53.464;9.852;2022-09-03T18:23:01;3.38;;;1.55;;
50319;SDS011;36226;53.464;9.852;2022-09-03T18:25:49;3.10;;;1.50;;
50319;SDS011;36226;53.464;9.852;2022-09-03T18:28:39;8.25;;;5.30;;
50319;SDS011;36226;53.464;9.852;2022-09-03T18:31:27;10.90;;;7.65;;
50319;SDS011;36226;53.464;9.852;2022-09-03T18:34:11;6.55;;;3.38;;
50319;SDS011;36226;53.464;9.852;2022-09-03T18:36:58;2.85;;;1.70;;
50319;SDS011;36226;53.464;9.852;2022-09-03T18:39:45;4.97;;;1.10;;
50319;SDS011;36226;53.464;9.852;2022-09-03T18:42:38;4.28;;;1.33;;
50319;SDS011;36226;53.464;9.852;2022-09-03T18:55:11;11.02;;;1.65;;
50319;SDS011;36226;53.464;9.852;2022-09-03T19:01:17;2.28;;;1.20;;
50319;SDS011;36226;53.464;9.852;2022-09-03T19:04:14;2.35;;;1.08;;
50319;SDS011;36226;53.464;9.852;2022-09-03T19:07:11;2.03;;;1.30;;
50319;SDS011;36226;53.464;9.852;2022-09-03T19:10:24;2.28;;;1.27;;
50319;SDS011;36226;53.464;9.852;2022-09-03T19:22:40;4.20;;;1.65;;
50319;SDS011;36226;53.464;9.852;2022-09-03T19:25:25;4.35;;;2.67;;
50319;SDS011;36226;53.464;9.852;2022-09-03T19:37:14;2.67;;;1.50;;
50319;SDS011;36226;53.464;9.852;2022-09-03T19:49:05;2.55;;;1.77;;
50319;SDS011;36226;53.464;9.852;2022-09-03T19:54:54;3.50;;;1.38;;
50319;SDS011;36226;53.464;9.852;2022-09-03T19:57:42;2.38;;;1.70;;
50319;SDS011;36226;53.464;9.852;2022-09-03T20:00:28;3.08;;;2.20;;
50319;SDS011;36226;53.464;9.852;2022-09-03T20:03:14;2.80;;;2.28;;
50319;SDS011;36226;53.464;9.852;2022-09-03T20:05:59;3.70;;;2.80;;
50319;SDS011;36226;53.464;9.852;2022-09-03T20:08:44;4.60;;;2.83;;
50319;SDS011;36226;53.464;9.852;2022-09-03T20:11:29;9.93;;;2.30;;
50319;SDS011;36226;53.464;9.852;2022-09-03T20:13:55;4.82;;;3.03;;
50319;SDS011;36226;53.464;9.852;2022-09-03T20:27:51;2.25;;;1.60;;
50319;SDS011;36226;53.464;9.852;2022-09-03T20:30:29;2.10;;;1.20;;
50319;SDS011;36226;53.464;9.852;2022-09-03T20:33:02;1.83;;;1.40;;
50319;SDS011;36226;53.464;9.852;2022-09-03T20:44:27;2.25;;;1.33;;
50319;SDS011;36226;53.464;9.852;2022-09-03T20:49:40;2.30;;;1.50;;
50319;SDS011;36226;53.464;9.852;2022-09-03T20:52:23;2.33;;;1.60;;
50319;SDS011;36226;53.464;9.852;2022-09-03T20:55:12;2.30;;;1.55;;
50319;SDS011;36226;53.464;9.852;2022-09-03T20:57:41;4.40;;;1.50;;
50319;SDS011;36226;53.464;9.852;2022-09-03T21:00:12;2.72;;;1.40;;
50319;SDS011;36226;53.464;9.852;2022-09-03T21:05:31;1.70;;;1.10;;
50319;SDS011;36226;53.464;9.852;2022-09-03T21:10:31;1.73;;;1.00;;
50319;SDS011;36226;53.464;9.852;2022-09-03T21:13:20;1.80;;;1.10;;
50319;SDS011;36226;53.464;9.852;2022-09-03T21:19:17;3.10;;;1.25;;
50319;SDS011;36226;53.464;9.852;2022-09-03T21:25:01;1.25;;;0.93;;
50319;SDS011;36226;53.464;9.852;2022-09-03T21:27:35;1.70;;;1.10;;
50319;SDS011;36226;53.464;9.852;2022-09-03T21:30:05;1.52;;;0.98;;
50319;SDS011;36226;53.464;9.852;2022-09-03T21:35:12;1.67;;;0.90;;
50319;SDS011;36226;53.464;9.852;2022-09-03T21:37:46;1.63;;;0.90;;
50319;SDS011;36226;53.464;9.852;2022-09-03T21:40:15;3.28;;;1.23;;
50319;SDS011;36226;53.464;9.852;2022-09-03T21:42:51;1.75;;;1.05;;
50319;SDS011;36226;53.464;9.852;2022-09-03T21:48:11;1.20;;;1.00;;
50319;SDS011;36226;53.464;9.852;2022-09-03T21:50:43;1.50;;;1.15;;